sensor_id;sensor_type;location;lat;lon;timestamp;pressure;altitude;pressure_sealevel;temperature;humidity
68456;BME280;55437;55.046;38.838;2022-09-03T00:00:09;100473.56;;;7.33;73.61
68456;BME280;55437;55.046;38.838;2022-09-03T00:02:51;100474.44;;;7.30;73.71
68456;BME280;55437;55.046;38.838;2022-09-03T00:08:36;100487.13;;;7.38;73.70
68456;BME280;55437;55.046;38.838;2022-09-03T00:11:23;100484.59;;;7.38;73.28
68456;BME280;55437;55.046;38.838;2022-09-03T00:13:58;100485.44;;;7.40;73.47
68456;BME280;55437;55.046;38.838;2022-09-03T00:16:42;100488.88;;;7.36;73.51
68456;BME280;55437;55.046;38.838;2022-09-03T00:19:09;100499.09;;;7.36;73.63
68456;BME280;55437;55.046;38.838;2022-09-03T00:21:48;100498.25;;;7.34;73.61
68456;BME280;55437;55.046;38.838;2022-09-03T00:24:18;100498.25;;;7.34;73.66
68456;BME280;55437;55.046;38.838;2022-09-03T00:26:52;100499.13;;;7.31;73.82
68456;BME280;55437;55.046;38.838;2022-09-03T00:29:23;100505.09;;;7.32;73.63
68456;BME280;55437;55.046;38.838;2022-09-03T00:31:53;100509.34;;;7.33;73.85
68456;BME280;55437;55.046;38.838;2022-09-03T00:34:37;100505.94;;;7.34;73.84
68456;BME280;55437;55.046;38.838;2022-09-03T00:37:09;100519.56;;;7.33;73.83
68456;BME280;55437;55.046;38.838;2022-09-03T00:39:36;100522.13;;;7.31;73.73
68456;BME280;55437;55.046;38.838;2022-09-03T00:47:42;100515.34;;;7.26;73.95
68456;BME280;55437;55.046;38.838;2022-09-03T01:00:43;100515.41;;;7.16;73.58
68456;BME280;55437;55.046;38.838;2022-09-03T01:03:34;100518.81;;;7.18;73.78
68456;BME280;55437;55.046;38.838;2022-09-03T01:09:00;100526.47;;;7.15;73.72
68456;BME280;55437;55.046;38.838;2022-09-03T01:19:56;100531.66;;;7.09;73.55
68456;BME280;55437;55.046;38.838;2022-09-03T01:30:40;100545.28;;;7.02;73.39
68456;BME280;55437;55.046;38.838;2022-09-03T01:33:30;100544.47;;;7.00;73.50
68456;BME280;55437;55.046;38.838;2022-09-03T01:53:22;100558.19;;;6.82;72.82
68456;BME280;55437;55.046;38.838;2022-09-03T01:58:36;100563.34;;;6.72;73.07
68456;BME280;55437;55.046;38.838;2022-09-03T02:01:06;100565.06;;;6.68;72.87
68456;BME280;55437;55.046;38.838;2022-09-03T02:03:40;100569.31;;;6.65;72.46
68456;BME280;55437;55.046;38.838;2022-09-03T02:06:08;100565.09;;;6.62;72.83
68456;BME280;55437;55.046;38.838;2022-09-03T02:08:35;100564.25;;;6.56;72.49
68456;BME280;55437;55.046;38.838;2022-09-03T02:11:00;100572.81;;;6.48;72.54
68456;BME280;55437;55.046;38.838;2022-09-03T02:13:46;100576.19;;;6.44;72.72
68456;BME280;55437;55.046;38.838;2022-09-03T02:16:16;100579.59;;;6.42;72.54
68456;BME280;55437;55.046;38.838;2022-09-03T02:18:47;100584.72;;;6.40;72.50
68456;BME280;55437;55.046;38.838;2022-09-03T02:21:17;100579.66;;;6.36;72.39
68456;BME280;55437;55.046;38.838;2022-09-03T02:23:44;100581.34;;;6.34;72.85
68456;BME280;55437;55.046;38.838;2022-09-03T02:26:12;100580.53;;;6.27;72.51
68456;BME280;55437;55.046;38.838;2022-09-03T02:28:40;100582.22;;;6.22;72.55
68456;BME280;55437;55.046;38.838;2022-09-03T02:31:06;100581.38;;;6.20;72.80
68456;BME280;55437;55.046;38.838;2022-09-03T02:33:37;100577.97;;;6.20;72.64
68456;BME280;55437;55.046;38.838;2022-09-03T02:36:07;100586.47;;;6.17;72.55
68456;BME280;55437;55.046;38.838;2022-09-03T02:38:33;100593.28;;;6.20;72.71
68456;BME280;55437;55.046;38.838;2022-09-03T02:40:59;100584.78;;;6.19;72.62
68456;BME280;55437;55.046;38.838;2022-09-03T02:46:19;100600.06;;;6.18;72.39
68456;BME280;55437;55.046;38.838;2022-09-03T02:48:45;100599.22;;;6.22;72.53
68456;BME280;55437;55.046;38.838;2022-09-03T02:51:11;100603.47;;;6.26;72.26
68456;BME280;55437;55.046;38.838;2022-09-03T02:53:37;100600.03;;;6.34;72.16
68456;BME280;55437;55.046;38.838;2022-09-03T02:56:03;100605.97;;;6.42;71.83
68456;BME280;55437;55.046;38.838;2022-09-03T02:58:29;100614.44;;;6.57;71.43
68456;BME280;55437;55.046;38.838;2022-09-03T03:00:58;100622.03;;;6.69;71.39
68456;BME280;55437;55.046;38.838;2022-09-03T03:03:24;100620.34;;;6.74;70.80
68456;BME280;55437;55.046;38.838;2022-09-03T03:05:54;100618.59;;;6.80;70.66
68456;BME280;55437;55.046;38.838;2022-09-03T03:08:24;100621.09;;;6.96;70.10
68456;BME280;55437;55.046;38.838;2022-09-03T03:10:52;100620.19;;;7.03;70.08
68456;BME280;55437;55.046;38.838;2022-09-03T03:13:21;100631.22;;;7.12;69.87
68456;BME280;55437;55.046;38.838;2022-09-03T03:15:47;100626.94;;;7.17;69.85
68456;BME280;55437;55.046;38.838;2022-09-03T03:18:14;100631.16;;;7.21;69.94
68456;BME280;55437;55.046;38.838;2022-09-03T03:20:40;100637.06;;;7.28;69.83
68456;BME280;55437;55.046;38.838;2022-09-03T03:23:06;100641.31;;;7.34;69.90
68456;BME280;55437;55.046;38.838;2022-09-03T03:25:33;100648.06;;;7.47;69.48
68456;BME280;55437;55.046;38.838;2022-09-03T03:27:59;100645.41;;;7.59;69.59
68456;BME280;55437;55.046;38.838;2022-09-03T03:30:26;100649.59;;;7.69;69.38
68456;BME280;55437;55.046;38.838;2022-09-03T03:32:53;100651.22;;;7.81;69.15
68456;BME280;55437;55.046;38.838;2022-09-03T03:35:18;100650.28;;;7.88;69.12
68456;BME280;55437;55.046;38.838;2022-09-03T03:37:44;100653.66;;;7.96;69.17
68456;BME280;55437;55.046;38.838;2022-09-03T03:40:11;100655.28;;;8.03;69.04
68456;BME280;55437;55.046;38.838;2022-09-03T03:42:37;100662.00;;;8.15;69.02
68456;BME280;55437;55.046;38.838;2022-09-03T03:45:04;100655.06;;;8.29;68.93
68456;BME280;55437;55.046;38.838;2022-09-03T03:47:31;100655.72;;;8.51;68.81
68456;BME280;55437;55.046;38.838;2022-09-03T03:49:57;100666.53;;;8.79;68.02
68456;BME280;55437;55.046;38.838;2022-09-03T03:52:24;100664.56;;;8.99;67.79
68456;BME280;55437;55.046;38.838;2022-09-03T03:54:50;100661.88;;;9.08;67.77
68456;BME280;55437;55.046;38.838;2022-09-03T03:57:17;100663.38;;;9.24;67.67
68456;BME280;55437;55.046;38.838;2022-09-03T03:59:44;100668.41;;;9.30;67.35
68456;BME280;55437;55.046;38.838;2022-09-03T04:02:11;100673.50;;;9.33;67.24
68456;BME280;55437;55.046;38.838;2022-09-03T04:04:36;100670.06;;;9.36;67.37
68456;BME280;55437;55.046;38.838;2022-09-03T04:07:02;100665.72;;;9.41;67.43
68456;BME280;55437;55.046;38.838;2022-09-03T04:09:28;100668.16;;;9.49;67.28
68456;BME280;55437;55.046;38.838;2022-09-03T04:11:54;100666.34;;;9.57;67.23
68456;BME280;55437;55.046;38.838;2022-09-03T04:14:25;100673.94;;;9.63;67.07
68456;BME280;55437;55.046;38.838;2022-09-03T04:16:54;100668.69;;;9.70;66.89
68456;BME280;55437;55.046;38.838;2022-09-03T04:19:20;100671.84;;;9.89;66.86
68456;BME280;55437;55.046;38.838;2022-09-03T04:21:46;100674.22;;;10.01;66.59
68456;BME280;55437;55.046;38.838;2022-09-03T04:24:12;100674.94;;;10.08;66.39
68456;BME280;55437;55.046;38.838;2022-09-03T04:26:38;100677.41;;;10.14;65.88
68456;BME280;55437;55.046;38.838;2022-09-03T04:29:08;100678.88;;;10.30;65.57
68456;BME280;55437;55.046;38.838;2022-09-03T04:31:36;100682.94;;;10.42;65.74
68456;BME280;55437;55.046;38.838;2022-09-03T04:34:03;100685.44;;;10.46;65.45
68456;BME280;55437;55.046;38.838;2022-09-03T04:36:31;100686.25;;;10.50;65.20
68456;BME280;55437;55.046;38.838;2022-09-03T04:38:59;100685.22;;;10.59;65.13
68456;BME280;55437;55.046;38.838;2022-09-03T04:41:27;100695.97;;;10.77;64.81
68456;BME280;55437;55.046;38.838;2022-09-03T04:43:55;100685.75;;;11.17;64.10
68456;BME280;55437;55.046;38.838;2022-09-03T04:46:24;100690.63;;;11.70;63.39
68456;BME280;55437;55.046;38.838;2022-09-03T04:48:52;100690.88;;;11.96;62.76
68456;BME280;55437;55.046;38.838;2022-09-03T04:51:21;100699.03;;;12.13;62.05
68456;BME280;55437;55.046;38.838;2022-09-03T04:53:56;100706.41;;;12.27;61.66
68456;BME280;55437;55.046;38.838;2022-09-03T04:56:24;100704.53;;;12.34;61.02
68456;BME280;55437;55.046;38.838;2022-09-03T04:59:01;100707.63;;;12.46;60.50
68456;BME280;55437;55.046;38.838;2022-09-03T05:01:30;100707.75;;;12.74;59.78
68456;BME280;55437;55.046;38.838;2022-09-03T05:03:57;100708.53;;;13.09;59.34
68456;BME280;55437;55.046;38.838;2022-09-03T05:06:24;100707.41;;;13.48;58.52
68456;BME280;55437;55.046;38.838;2022-09-03T05:08:51;100703.44;;;13.92;58.01
68456;BME280;55437;55.046;38.838;2022-09-03T05:11:18;100711.69;;;14.30;56.96
68456;BME280;55437;55.046;38.838;2022-09-03T05:13:48;100713.94;;;14.65;56.08
68456;BME280;55437;55.046;38.838;2022-09-03T05:16:16;100717.22;;;15.19;55.10
68456;BME280;55437;55.046;38.838;2022-09-03T05:18:42;100715.50;;;15.86;54.17
68456;BME280;55437;55.046;38.838;2022-09-03T05:21:18;100716.53;;;16.44;52.75
68456;BME280;55437;55.046;38.838;2022-09-03T05:23:46;100726.28;;;17.00;51.63
68456;BME280;55437;55.046;38.838;2022-09-03T05:26:17;100708.75;;;17.43;50.07
68456;BME280;55437;55.046;38.838;2022-09-03T05:28:44;100713.59;;;17.69;49.40
68456;BME280;55437;55.046;38.838;2022-09-03T05:31:13;100712.81;;;18.03;48.25
68456;BME280;55437;55.046;38.838;2022-09-03T05:33:43;100714.50;;;18.56;46.91
68456;BME280;55437;55.046;38.838;2022-09-03T05:36:11;100715.97;;;19.27;45.44
68456;BME280;55437;55.046;38.838;2022-09-03T05:38:38;100709.25;;;19.86;44.14
68456;BME280;55437;55.046;38.838;2022-09-03T05:41:08;100714.34;;;20.63;42.39
68456;BME280;55437;55.046;38.838;2022-09-03T05:43:35;100712.34;;;21.25;40.78
68456;BME280;55437;55.046;38.838;2022-09-03T05:46:03;100717.44;;;21.68;39.73
68456;BME280;55437;55.046;38.838;2022-09-03T05:48:31;100704.78;;;22.15;38.61
68456;BME280;55437;55.046;38.838;2022-09-03T05:51:11;100717.72;;;22.56;37.44
68456;BME280;55437;55.046;38.838;2022-09-03T05:53:42;100719.53;;;22.94;37.02
68456;BME280;55437;55.046;38.838;2022-09-03T05:56:10;100718.28;;;23.36;36.02
68456;BME280;55437;55.046;38.838;2022-09-03T05:58:40;100709.91;;;23.67;35.28
68456;BME280;55437;55.046;38.838;2022-09-03T06:01:20;100724.00;;;23.90;34.39
68456;BME280;55437;55.046;38.838;2022-09-03T06:04:00;100721.16;;;24.28;33.77
68456;BME280;55437;55.046;38.838;2022-09-03T06:06:28;100728.09;;;24.40;33.75
68456;BME280;55437;55.046;38.838;2022-09-03T06:08:59;100721.59;;;24.68;33.06
68456;BME280;55437;55.046;38.838;2022-09-03T06:11:27;100727.50;;;24.94;32.51
68456;BME280;55437;55.046;38.838;2022-09-03T06:13:58;100730.63;;;25.10;31.65
68456;BME280;55437;55.046;38.838;2022-09-03T06:16:26;100728.44;;;25.38;31.22
68456;BME280;55437;55.046;38.838;2022-09-03T06:18:52;100733.81;;;25.25;30.79
68456;BME280;55437;55.046;38.838;2022-09-03T06:21:18;100730.47;;;25.34;30.43
68456;BME280;55437;55.046;38.838;2022-09-03T06:23:55;100734.88;;;25.45;29.95
68456;BME280;55437;55.046;38.838;2022-09-03T06:26:22;100739.66;;;25.62;30.00
68456;BME280;55437;55.046;38.838;2022-09-03T06:28:48;100741.16;;;25.76;29.80
68456;BME280;55437;55.046;38.838;2022-09-03T06:31:18;100742.91;;;25.87;29.47
68456;BME280;55437;55.046;38.838;2022-09-03T06:33:45;100738.09;;;25.60;29.59
68456;BME280;55437;55.046;38.838;2022-09-03T06:36:16;100737.53;;;25.34;29.53
68456;BME280;55437;55.046;38.838;2022-09-03T06:38:43;100743.63;;;25.34;29.47
68456;BME280;55437;55.046;38.838;2022-09-03T06:41:15;100742.06;;;25.43;29.35
68456;BME280;55437;55.046;38.838;2022-09-03T06:43:54;100742.88;;;25.66;29.04
68456;BME280;55437;55.046;38.838;2022-09-03T06:46:23;100755.34;;;25.30;29.46
68456;BME280;55437;55.046;38.838;2022-09-03T06:48:50;100749.06;;;24.75;29.95
68456;BME280;55437;55.046;38.838;2022-09-03T06:51:21;100742.44;;;24.13;30.97
68456;BME280;55437;55.046;38.838;2022-09-03T06:53:52;100750.91;;;23.68;31.22
68456;BME280;55437;55.046;38.838;2022-09-03T06:56:22;100754.03;;;23.37;31.46
68456;BME280;55437;55.046;38.838;2022-09-03T06:58:52;100749.97;;;22.57;32.71
68456;BME280;55437;55.046;38.838;2022-09-03T07:01:21;100746.97;;;22.88;32.07
68456;BME280;55437;55.046;38.838;2022-09-03T07:03:52;100754.91;;;22.99;32.19
68456;BME280;55437;55.046;38.838;2022-09-03T07:06:21;100745.00;;;23.41;31.45
68456;BME280;55437;55.046;38.838;2022-09-03T07:08:47;100746.13;;;23.50;31.66
68456;BME280;55437;55.046;38.838;2022-09-03T07:11:15;100731.34;;;23.85;31.28
68456;BME280;55437;55.046;38.838;2022-09-03T07:13:44;100748.78;;;24.21;30.52
68456;BME280;55437;55.046;38.838;2022-09-03T07:16:25;100743.97;;;24.15;30.31
68456;BME280;55437;55.046;38.838;2022-09-03T07:18:52;100750.38;;;23.76;30.58
68456;BME280;55437;55.046;38.838;2022-09-03T07:21:20;100747.16;;;22.98;31.51
68456;BME280;55437;55.046;38.838;2022-09-03T07:23:46;100751.25;;;23.15;31.35
68456;BME280;55437;55.046;38.838;2022-09-03T07:26:15;100753.16;;;23.86;30.60
68456;BME280;55437;55.046;38.838;2022-09-03T07:28:43;100753.06;;;24.46;29.64
68456;BME280;55437;55.046;38.838;2022-09-03T07:31:14;100751.50;;;24.44;29.28
68456;BME280;55437;55.046;38.838;2022-09-03T07:33:41;100761.03;;;24.33;29.63
68456;BME280;55437;55.046;38.838;2022-09-03T07:36:09;100750.50;;;23.98;30.01
68456;BME280;55437;55.046;38.838;2022-09-03T07:38:36;100763.06;;;24.41;29.84
68456;BME280;55437;55.046;38.838;2022-09-03T07:41:04;100764.38;;;24.82;29.06
68456;BME280;55437;55.046;38.838;2022-09-03T07:43:36;100756.53;;;25.04;28.68
68456;BME280;55437;55.046;38.838;2022-09-03T07:46:08;100758.91;;;25.40;28.24
68456;BME280;55437;55.046;38.838;2022-09-03T07:48:40;100749.69;;;25.68;27.87
68456;BME280;55437;55.046;38.838;2022-09-03T07:51:07;100754.00;;;26.01;27.62
68456;BME280;55437;55.046;38.838;2022-09-03T07:53:34;100757.97;;;25.08;27.51
68456;BME280;55437;55.046;38.838;2022-09-03T07:56:09;100749.03;;;24.64;27.81
68456;BME280;55437;55.046;38.838;2022-09-03T07:58:37;100751.53;;;23.72;29.24
68456;BME280;55437;55.046;38.838;2022-09-03T08:01:05;100744.88;;;23.55;29.40
68456;BME280;55437;55.046;38.838;2022-09-03T08:03:36;100749.06;;;23.58;29.63
68456;BME280;55437;55.046;38.838;2022-09-03T08:06:05;100738.63;;;24.17;29.28
68456;BME280;55437;55.046;38.838;2022-09-03T08:08:31;100751.34;;;24.69;28.76
68456;BME280;55437;55.046;38.838;2022-09-03T08:11:08;100749.78;;;24.89;27.31
68456;BME280;55437;55.046;38.838;2022-09-03T08:13:44;100748.88;;;25.12;27.53
68456;BME280;55437;55.046;38.838;2022-09-03T08:16:11;100749.13;;;25.31;27.60
68456;BME280;55437;55.046;38.838;2022-09-03T08:18:38;100735.34;;;25.39;27.57
68456;BME280;55437;55.046;38.838;2022-09-03T08:21:09;100737.69;;;25.10;27.41
68456;BME280;55437;55.046;38.838;2022-09-03T08:23:39;100744.31;;;24.23;27.70
68456;BME280;55437;55.046;38.838;2022-09-03T08:26:05;100733.19;;;23.23;28.88
68456;BME280;55437;55.046;38.838;2022-09-03T08:28:32;100733.81;;;23.26;29.27
68456;BME280;55437;55.046;38.838;2022-09-03T08:31:31;100737.53;;;23.60;29.76
68456;BME280;55437;55.046;38.838;2022-09-03T08:33:59;100730.34;;;23.99;29.79
68456;BME280;55437;55.046;38.838;2022-09-03T08:36:29;100729.56;;;23.86;30.09
68456;BME280;55437;55.046;38.838;2022-09-03T08:38:58;100734.59;;;23.03;30.51
68456;BME280;55437;55.046;38.838;2022-09-03T08:44:29;100723.25;;;21.73;31.96
68456;BME280;55437;55.046;38.838;2022-09-03T08:52:59;100719.75;;;19.85;34.15
68456;BME280;55437;55.046;38.838;2022-09-03T08:55:30;100716.75;;;19.92;34.36
68456;BME280;55437;55.046;38.838;2022-09-03T08:58:08;100712.53;;;20.20;34.03
68456;BME280;55437;55.046;38.838;2022-09-03T09:05:50;100709.25;;;19.86;33.79
68456;BME280;55437;55.046;38.838;2022-09-03T09:08:32;100712.28;;;19.31;35.10
68456;BME280;55437;55.046;38.838;2022-09-03T09:13:43;100719.88;;;19.03;36.18
68456;BME280;55437;55.046;38.838;2022-09-03T09:16:53;100722.09;;;19.26;36.34
68456;BME280;55437;55.046;38.838;2022-09-03T09:21:52;100724.66;;;19.43;36.77
68456;BME280;55437;55.046;38.838;2022-09-03T09:24:25;100718.69;;;19.57;36.30
68456;BME280;55437;55.046;38.838;2022-09-03T09:26:59;100722.81;;;19.77;36.29
68456;BME280;55437;55.046;38.838;2022-09-03T09:29:32;100718.41;;;19.93;35.98
68456;BME280;55437;55.046;38.838;2022-09-03T09:31:59;100720.69;;;19.99;35.90
68456;BME280;55437;55.046;38.838;2022-09-03T09:34:25;100709.09;;;19.89;36.17
68456;BME280;55437;55.046;38.838;2022-09-03T09:36:53;100720.59;;;19.85;35.52
68456;BME280;55437;55.046;38.838;2022-09-03T09:39:20;100715.06;;;19.91;35.26
68456;BME280;55437;55.046;38.838;2022-09-03T09:44:39;100712.91;;;20.13;34.34
68456;BME280;55437;55.046;38.838;2022-09-03T09:47:27;100705.63;;;20.04;34.39
68456;BME280;55437;55.046;38.838;2022-09-03T09:49:56;100717.22;;;19.99;34.76
68456;BME280;55437;55.046;38.838;2022-09-03T09:52:26;100711.16;;;20.14;34.62
68456;BME280;55437;55.046;38.838;2022-09-03T09:55:07;100704.09;;;20.30;34.75
68456;BME280;55437;55.046;38.838;2022-09-03T09:57:34;100693.19;;;20.39;34.81
68456;BME280;55437;55.046;38.838;2022-09-03T10:00:12;100695.56;;;20.42;34.42
68456;BME280;55437;55.046;38.838;2022-09-03T10:02:59;100701.69;;;20.27;34.20
68456;BME280;55437;55.046;38.838;2022-09-03T10:05:30;100704.81;;;20.18;34.89
68456;BME280;55437;55.046;38.838;2022-09-03T10:08:03;100701.78;;;20.26;33.89
68456;BME280;55437;55.046;38.838;2022-09-03T10:10:37;100696.91;;;19.90;34.17
68456;BME280;55437;55.046;38.838;2022-09-03T10:13:22;100711.06;;;19.54;34.83
68456;BME280;55437;55.046;38.838;2022-09-03T10:15:59;100712.94;;;19.19;34.84
68456;BME280;55437;55.046;38.838;2022-09-03T10:18:39;100709.69;;;18.98;34.88
68456;BME280;55437;55.046;38.838;2022-09-03T10:21:19;100705.16;;;18.86;35.10
68456;BME280;55437;55.046;38.838;2022-09-03T10:26:35;100702.44;;;18.55;35.08
68456;BME280;55437;55.046;38.838;2022-09-03T10:29:03;100702.97;;;18.44;34.89
68456;BME280;55437;55.046;38.838;2022-09-03T10:34:31;100693.50;;;18.09;34.54
68456;BME280;55437;55.046;38.838;2022-09-03T10:40:00;100695.72;;;18.33;34.45
68456;BME280;55437;55.046;38.838;2022-09-03T10:45:18;100703.28;;;18.38;33.85
68456;BME280;55437;55.046;38.838;2022-09-03T10:50:43;100704.94;;;18.39;34.54
68456;BME280;55437;55.046;38.838;2022-09-03T10:53:43;100706.72;;;18.39;34.62
68456;BME280;55437;55.046;38.838;2022-09-03T11:05:21;100699.53;;;18.44;34.90
68456;BME280;55437;55.046;38.838;2022-09-03T11:07:51;100709.09;;;18.43;34.82
68456;BME280;55437;55.046;38.838;2022-09-03T11:10:24;100704.03;;;18.40;35.08
68456;BME280;55437;55.046;38.838;2022-09-03T11:15:47;100704.03;;;18.40;35.50
68456;BME280;55437;55.046;38.838;2022-09-03T11:18:24;100698.38;;;18.49;35.38
68456;BME280;55437;55.046;38.838;2022-09-03T11:20:55;100695.34;;;18.58;35.02
68456;BME280;55437;55.046;38.838;2022-09-03T11:23:32;100698.47;;;18.65;34.68
68456;BME280;55437;55.046;38.838;2022-09-03T11:26:08;100689.88;;;18.63;34.51
68456;BME280;55437;55.046;38.838;2022-09-03T11:33:54;100688.97;;;18.47;34.63
68456;BME280;55437;55.046;38.838;2022-09-03T11:36:37;100688.66;;;18.35;33.84
68456;BME280;55437;55.046;38.838;2022-09-03T11:39:35;100688.22;;;18.27;34.05
68456;BME280;55437;55.046;38.838;2022-09-03T11:42:44;100683.84;;;18.28;34.02
68456;BME280;55437;55.046;38.838;2022-09-03T11:47:44;100683.72;;;18.31;33.88
68456;BME280;55437;55.046;38.838;2022-09-03T11:50:23;100685.53;;;18.46;33.59
68456;BME280;55437;55.046;38.838;2022-09-03T11:52:51;100669.63;;;18.69;33.63
68456;BME280;55437;55.046;38.838;2022-09-03T11:55:27;100667.59;;;18.75;33.94
68456;BME280;55437;55.046;38.838;2022-09-03T11:57:55;100669.09;;;18.46;33.79
68456;BME280;55437;55.046;38.838;2022-09-03T12:00:24;100658.84;;;18.25;33.97
68456;BME280;55437;55.046;38.838;2022-09-03T12:03:00;100658.41;;;18.17;33.82
68456;BME280;55437;55.046;38.838;2022-09-03T12:05:43;100659.25;;;18.18;34.03
68456;BME280;55437;55.046;38.838;2022-09-03T12:19:37;100639.69;;;18.11;33.72
68456;BME280;55437;55.046;38.838;2022-09-03T12:22:05;100638.66;;;18.13;33.93
68456;BME280;55437;55.046;38.838;2022-09-03T12:24:31;100631.16;;;18.24;33.92
68456;BME280;55437;55.046;38.838;2022-09-03T12:27:03;100637.34;;;18.39;33.75
68456;BME280;55437;55.046;38.838;2022-09-03T12:29:29;100622.53;;;18.58;33.78
68456;BME280;55437;55.046;38.838;2022-09-03T12:32:05;100635.94;;;18.49;33.50
68456;BME280;55437;55.046;38.838;2022-09-03T12:34:31;100636.97;;;18.47;33.89
68456;BME280;55437;55.046;38.838;2022-09-03T12:36:57;100635.16;;;18.31;33.61
68456;BME280;55437;55.046;38.838;2022-09-03T12:39:26;100639.97;;;18.22;33.70
68456;BME280;55437;55.046;38.838;2022-09-03T12:42:07;100631.47;;;18.01;33.93
68456;BME280;55437;55.046;38.838;2022-09-03T12:47:10;100626.75;;;17.56;34.78
68456;BME280;55437;55.046;38.838;2022-09-03T12:49:41;100628.06;;;17.47;34.86
68456;BME280;55437;55.046;38.838;2022-09-03T12:54:39;100627.66;;;17.38;34.97
68456;BME280;55437;55.046;38.838;2022-09-03T12:57:08;100632.34;;;17.29;35.10
68456;BME280;55437;55.046;38.838;2022-09-03T12:59:35;100625.44;;;17.11;35.31
68456;BME280;55437;55.046;38.838;2022-09-03T13:02:15;100614.66;;;17.02;35.08
68456;BME280;55437;55.046;38.838;2022-09-03T13:04:45;100618.63;;;17.09;35.15
68456;BME280;55437;55.046;38.838;2022-09-03T13:07:24;100614.63;;;17.20;34.87
68456;BME280;55437;55.046;38.838;2022-09-03T13:09:57;100608.97;;;17.29;35.23
68456;BME280;55437;55.046;38.838;2022-09-03T13:12:32;100610.75;;;17.29;35.10
68456;BME280;55437;55.046;38.838;2022-09-03T13:15:05;100597.75;;;17.29;35.46
68456;BME280;55437;55.046;38.838;2022-09-03T13:20:14;100604.69;;;17.28;35.72
68456;BME280;55437;55.046;38.838;2022-09-03T13:25:35;100608.50;;;17.03;35.45
68456;BME280;55437;55.046;38.838;2022-09-03T13:31:11;100601.88;;;16.97;36.09
68456;BME280;55437;55.046;38.838;2022-09-03T13:33:49;100605.56;;;16.91;36.57
68456;BME280;55437;55.046;38.838;2022-09-03T13:36:27;100605.66;;;16.90;36.86
68456;BME280;55437;55.046;38.838;2022-09-03T13:39:05;100598.94;;;16.86;36.92
68456;BME280;55437;55.046;38.838;2022-09-03T13:41:45;100601.88;;;16.78;37.22
68456;BME280;55437;55.046;38.838;2022-09-03T13:47:07;100604.41;;;16.60;37.38
68456;BME280;55437;55.046;38.838;2022-09-03T13:55:30;100604.03;;;16.48;38.15
68456;BME280;55437;55.046;38.838;2022-09-03T14:00:44;100599.69;;;16.49;38.16
68456;BME280;55437;55.046;38.838;2022-09-03T14:03:20;100595.50;;;16.46;38.44
68456;BME280;55437;55.046;38.838;2022-09-03T14:14:52;100582.75;;;16.42;38.05
68456;BME280;55437;55.046;38.838;2022-09-03T14:17:45;100576.84;;;16.38;38.46
68456;BME280;55437;55.046;38.838;2022-09-03T14:20:19;100576.25;;;16.32;38.58
68456;BME280;55437;55.046;38.838;2022-09-03T14:25:18;100575.69;;;16.25;38.49
68456;BME280;55437;55.046;38.838;2022-09-03T14:27:44;100579.31;;;16.21;38.52
68456;BME280;55437;55.046;38.838;2022-09-03T14:30:24;100576.88;;;16.18;38.38
68456;BME280;55437;55.046;38.838;2022-09-03T14:33:19;100571.94;;;16.12;38.34
68456;BME280;55437;55.046;38.838;2022-09-03T14:44:01;100566.78;;;15.92;38.78
68456;BME280;55437;55.046;38.838;2022-09-03T14:50:09;100568.84;;;15.83;38.92
68456;BME280;55437;55.046;38.838;2022-09-03T14:52:47;100570.75;;;15.80;39.22
68456;BME280;55437;55.046;38.838;2022-09-03T14:58:29;100574.41;;;15.74;39.24
68456;BME280;55437;55.046;38.838;2022-09-03T15:01:26;100574.69;;;15.68;39.37
68456;BME280;55437;55.046;38.838;2022-09-03T15:09:41;100571.44;;;15.41;40.14
68456;BME280;55437;55.046;38.838;2022-09-03T15:14:55;100571.19;;;15.26;40.93
68456;BME280;55437;55.046;38.838;2022-09-03T15:20:19;100570.94;;;15.10;41.77
68456;BME280;55437;55.046;38.838;2022-09-03T15:23:08;100566.06;;;15.02;42.14
68456;BME280;55437;55.046;38.838;2022-09-03T15:26:04;100568.97;;;14.95;42.63
68456;BME280;55437;55.046;38.838;2022-09-03T15:36:41;100553.47;;;14.71;43.22
68456;BME280;55437;55.046;38.838;2022-09-03T15:39:13;100552.84;;;14.65;43.90
68456;BME280;55437;55.046;38.838;2022-09-03T15:41:54;100558.31;;;14.57;44.04
68456;BME280;55437;55.046;38.838;2022-09-03T15:44:25;100552.50;;;14.51;44.33
68456;BME280;55437;55.046;38.838;2022-09-03T15:49:35;100558.97;;;14.37;45.00
68456;BME280;55437;55.046;38.838;2022-09-03T15:52:36;100559.38;;;14.27;45.31
68456;BME280;55437;55.046;38.838;2022-09-03T15:55:13;100564.81;;;14.19;45.44
68456;BME280;55437;55.046;38.838;2022-09-03T16:00:55;100568.16;;;13.98;46.48
68456;BME280;55437;55.046;38.838;2022-09-03T16:06:35;100557.59;;;13.79;47.44
68456;BME280;55437;55.046;38.838;2022-09-03T16:09:23;100559.59;;;13.71;47.43
68456;BME280;55437;55.046;38.838;2022-09-03T16:12:03;100556.34;;;13.64;47.43
68456;BME280;55437;55.046;38.838;2022-09-03T16:14:42;100556.66;;;13.55;47.46
68456;BME280;55437;55.046;38.838;2022-09-03T16:17:30;100557.00;;;13.45;48.13
68456;BME280;55437;55.046;38.838;2022-09-03T16:20:18;100558.16;;;13.36;48.32
68456;BME280;55437;55.046;38.838;2022-09-03T16:23:25;100559.44;;;13.23;49.34
68456;BME280;55437;55.046;38.838;2022-09-03T16:26:02;100560.66;;;13.10;49.04
68456;BME280;55437;55.046;38.838;2022-09-03T16:38:59;100561.88;;;12.69;50.71
68456;BME280;55437;55.046;38.838;2022-09-03T16:53:09;100571.59;;;12.60;51.86
68456;BME280;55437;55.046;38.838;2022-09-03T16:55:54;100569.97;;;12.56;51.82
68456;BME280;55437;55.046;38.838;2022-09-03T17:03:56;100576.88;;;12.25;52.78